Weather at Wiarton Airport

Public forecast

Using degrees Celsius for public forecast. Weather courtesy of forecast.io.

Current aviation weather report (METAR) for Wiarton Airport

Retrieved 2021/06/24 19:00 UTC (57 minutes ago):

CYVV 241900Z 24013G20KT 15SM SCT060 OVC100 24/12 A3004 RMK SC4AS4 SLP172 DENSITY ALT 1900FT

Aviation forecast (TAF) for Wiarton Airport

Retrieved 2021/06/24 20:00 UTC (0 seconds ago):

TAF CYVV 241938Z 2420/2423 23015G30KT P6SM SCT060 BKN100 TEMPO 2420/2423 P6SM -SHRA OVC060 RMK NXT FCST WILL BE ISSUED AT 251045Z